createdAt,value
2023-01-09T00:01:30.642Z,99405.91
2023-01-09T00:03:57.227Z,99398.16
2023-01-09T00:06:23.838Z,99400.78
2023-01-09T00:08:50.942Z,99400.84
2023-01-09T00:11:17.331Z,99396.53
2023-01-09T00:13:43.849Z,99391.38
2023-01-09T00:16:10.549Z,99391.44
2023-01-09T00:18:38.119Z,99388.00
2023-01-09T00:21:07.403Z,99380.28
2023-01-09T00:23:34.952Z,99381.22
2023-01-09T00:26:10.879Z,99381.25
2023-01-09T00:28:37.811Z,99366.59
2023-01-09T00:31:05.990Z,99354.56
2023-01-09T00:33:44.831Z,99363.22
2023-01-09T00:36:12.290Z,99358.97
2023-01-09T00:38:39.348Z,99359.84
2023-01-09T00:41:09.981Z,99359.88
2023-01-09T00:43:43.001Z,99353.84
2023-01-09T00:46:10.334Z,99345.25
2023-01-09T00:48:40.959Z,99354.75
2023-01-09T00:51:08.223Z,99353.91
2023-01-09T00:53:36.778Z,99356.50
2023-01-09T00:56:07.103Z,99359.09
2023-01-09T00:58:34.916Z,99364.25
2023-01-09T01:01:02.574Z,99354.75
2023-01-09T01:03:29.209Z,99354.75
2023-01-09T01:06:14.636Z,99353.88
2023-01-09T01:08:41.221Z,99346.13
2023-01-09T01:11:10.391Z,99356.41
2023-01-09T01:13:37.838Z,99364.13
2023-01-09T01:16:06.299Z,99354.66
2023-01-09T01:18:32.847Z,99353.78
2023-01-09T01:20:59.367Z,99349.41
2023-01-09T01:23:26.595Z,99343.31
2023-01-09T01:25:53.008Z,99340.72
2023-01-09T01:28:19.816Z,99343.28
2023-01-09T01:30:46.315Z,99340.66
2023-01-09T01:33:12.754Z,99344.00
2023-01-09T01:35:39.254Z,99330.13
2023-01-09T01:38:06.101Z,99336.13
2023-01-09T01:40:32.629Z,99331.84
2023-01-09T01:42:59.260Z,99331.91
2023-01-09T01:45:28.261Z,99330.22
2023-01-09T01:47:57.718Z,99322.47
2023-01-09T01:50:30.069Z,99319.06
2023-01-09T01:53:06.704Z,99326.84
2023-01-09T01:55:41.453Z,99318.25
2023-01-09T01:58:11.324Z,99322.53
2023-01-09T02:00:42.613Z,99316.44
2023-01-09T02:03:09.885Z,99306.91
2023-01-09T02:05:38.921Z,99306.84
2023-01-09T02:08:07.035Z,99304.25
2023-01-09T02:10:34.803Z,99305.06
2023-01-09T02:13:03.242Z,99302.44
2023-01-09T02:15:55.402Z,99304.97
2023-01-09T02:18:46.030Z,99298.03
2023-01-09T02:21:44.909Z,99291.09
2023-01-09T02:24:30.865Z,99298.81
2023-01-09T02:27:14.954Z,99287.63
2023-01-09T02:30:27.016Z,99285.84
2023-01-09T02:33:20.824Z,99285.00
2023-01-09T02:35:47.347Z,99276.34
2023-01-09T02:38:19.624Z,99277.13
2023-01-09T02:41:04.321Z,99270.13
2023-01-09T02:43:32.159Z,99272.66
2023-01-09T02:45:58.753Z,99261.41
2023-01-09T02:48:25.615Z,99260.53
2023-01-09T02:51:12.747Z,99257.94
2023-01-09T02:53:59.627Z,99258.69
2023-01-09T02:56:55.855Z,99254.38
2023-01-09T02:59:56.325Z,99241.41
2023-01-09T03:02:39.774Z,99244.81
2023-01-09T03:05:15.533Z,99250.75
2023-01-09T03:08:06.634Z,99248.06
2023-01-09T03:10:59.805Z,99243.66
2023-01-09T03:13:32.305Z,99250.47
2023-01-09T03:16:02.866Z,99247.78
2023-01-09T03:18:32.587Z,99257.16
2023-01-09T03:20:59.841Z,99258.84
2023-01-09T03:23:26.267Z,99255.31
2023-01-09T03:25:52.720Z,99258.69
2023-01-09T03:28:28.703Z,99255.03
2023-01-09T03:30:55.607Z,99247.16
2023-01-09T03:33:22.474Z,99246.16
2023-01-09T03:35:49.058Z,99237.44
2023-01-09T03:38:16.018Z,99239.06
2023-01-09T03:40:43.704Z,99248.56
2023-01-09T03:43:10.761Z,99248.53
2023-01-09T03:45:37.216Z,99245.88
2023-01-09T03:48:03.796Z,99250.19
2023-01-09T03:50:30.535Z,99243.22
2023-01-09T03:52:57.118Z,99250.91
2023-01-09T03:55:23.618Z,99249.94
2023-01-09T03:57:50.667Z,99252.50
2023-01-09T04:00:17.339Z,99243.72
2023-01-09T04:02:43.778Z,99240.22
2023-01-09T04:05:11.081Z,99241.84
2023-01-09T04:07:37.908Z,99236.63
2023-01-09T04:10:05.227Z,99233.06
2023-01-09T04:12:31.871Z,99232.91
2023-01-09T04:14:58.326Z,99225.88
2023-01-09T04:17:24.858Z,99231.78
2023-01-09T04:19:51.347Z,99228.19
2023-01-09T04:22:17.824Z,99228.94
2023-01-09T04:24:44.547Z,99228.84
2023-01-09T04:27:12.151Z,99224.41
2023-01-09T04:29:38.761Z,99218.19
2023-01-09T04:32:05.705Z,99223.31
2023-01-09T04:34:32.109Z,99227.63
2023-01-09T04:36:58.612Z,99223.31
2023-01-09T04:39:25.204Z,99222.44
2023-01-09T04:41:51.797Z,99219.84
2023-01-09T04:44:26.306Z,99212.03
2023-01-09T04:46:54.716Z,99217.25
2023-01-09T04:49:24.422Z,99227.56
2023-01-09T04:51:51.790Z,99220.63
2023-01-09T04:54:18.237Z,99214.53
2023-01-09T04:56:44.819Z,99219.63
2023-01-09T04:59:11.648Z,99219.63
2023-01-09T05:01:38.229Z,99215.25
2023-01-09T05:04:05.307Z,99216.03
2023-01-09T05:06:32.307Z,99213.41
2023-01-09T05:08:58.807Z,99215.91
2023-01-09T05:11:25.568Z,99214.19
2023-01-09T05:13:52.657Z,99216.75
2023-01-09T05:16:19.694Z,99215.84
2023-01-09T05:18:46.513Z,99211.50
2023-01-09T05:21:13.376Z,99221.00
2023-01-09T05:23:42.447Z,99218.31
2023-01-09T05:26:08.926Z,99211.38
2023-01-09T05:28:35.784Z,99213.03
2023-01-09T05:31:02.470Z,99202.56
2023-01-09T05:33:28.945Z,99203.34
2023-01-09T05:35:55.680Z,99204.13
2023-01-09T05:38:22.438Z,99207.53
2023-01-09T05:40:48.976Z,99204.88
2023-01-09T05:43:16.041Z,99209.09
2023-01-09T05:45:43.469Z,99206.41
2023-01-09T05:48:10.312Z,99211.50
2023-01-09T05:50:36.885Z,99212.28
2023-01-09T05:53:03.436Z,99204.50
2023-01-09T05:55:30.051Z,99215.63
2023-01-09T05:57:56.492Z,99212.09
2023-01-09T06:00:22.968Z,99216.38
2023-01-09T06:02:49.634Z,99211.13
2023-01-09T06:05:16.279Z,99225.91
2023-01-09T06:07:42.891Z,99220.66
2023-01-09T06:10:12.025Z,99224.13
2023-01-09T06:12:38.717Z,99220.66
2023-01-09T06:15:08.680Z,99223.25
2023-01-09T06:17:35.730Z,99236.25
2023-01-09T06:20:02.719Z,99237.06
2023-01-09T06:22:29.117Z,99239.63
2023-01-09T06:24:55.978Z,99243.06
2023-01-09T06:27:22.679Z,99244.84
2023-01-09T06:29:49.112Z,99240.47
2023-01-09T06:32:15.803Z,99237.06
2023-01-09T06:34:42.579Z,99244.88
2023-01-09T06:37:09.261Z,99248.38
2023-01-09T06:39:36.015Z,99245.81
2023-01-09T06:42:02.876Z,99255.34
2023-01-09T06:44:29.543Z,99253.66
2023-01-09T06:46:56.035Z,99259.75
2023-01-09T06:49:25.626Z,99259.75
2023-01-09T06:51:52.274Z,99261.50
2023-01-09T06:54:19.811Z,99264.94
2023-01-09T06:56:47.000Z,99258.91
2023-01-09T06:59:14.033Z,99261.53
2023-01-09T07:01:41.131Z,99264.16
2023-01-09T07:04:10.855Z,99266.75
2023-01-09T07:06:37.871Z,99268.53
2023-01-09T07:09:06.057Z,99272.00
2023-01-09T07:11:32.967Z,99268.63
2023-01-09T07:13:59.960Z,99269.47
2023-01-09T07:16:26.398Z,99266.84
2023-01-09T07:18:54.772Z,99262.53
2023-01-09T07:21:21.757Z,99274.69
2023-01-09T07:23:48.289Z,99268.69
2023-01-09T07:26:14.797Z,99273.91
2023-01-09T07:28:41.479Z,99273.13
2023-01-09T07:31:08.138Z,99282.69
2023-01-09T07:33:35.595Z,99283.59
2023-01-09T07:36:02.399Z,99286.25
2023-01-09T07:38:28.917Z,99290.56
2023-01-09T07:40:58.225Z,99292.41
2023-01-09T07:43:24.903Z,99289.88
2023-01-09T07:45:51.535Z,99305.47
2023-01-09T07:48:18.273Z,99308.06
2023-01-09T07:50:45.009Z,99309.03
2023-01-09T07:53:11.477Z,99304.72
2023-01-09T07:55:37.942Z,99306.47
2023-01-09T07:58:04.429Z,99316.00
2023-01-09T08:00:33.041Z,99322.94
2023-01-09T08:03:01.511Z,99326.41
2023-01-09T08:05:28.111Z,99333.31
2023-01-09T08:07:54.766Z,99335.91
2023-01-09T08:10:21.455Z,99334.97
2023-01-09T08:12:49.011Z,99339.25
2023-01-09T08:15:16.133Z,99335.69
2023-01-09T08:17:43.532Z,99347.72
2023-01-09T08:20:14.950Z,99342.47
2023-01-09T08:22:42.918Z,99350.25
2023-01-09T08:25:12.271Z,99347.56
2023-01-09T08:27:39.330Z,99352.72
2023-01-09T08:30:06.583Z,99350.91
2023-01-09T08:32:34.753Z,99356.00
2023-01-09T08:35:01.507Z,99355.94
2023-01-09T08:37:28.630Z,99358.44
2023-01-09T08:39:56.381Z,99357.47
2023-01-09T08:42:41.437Z,99358.25
2023-01-09T08:45:29.341Z,99364.22
2023-01-09T08:47:57.219Z,99364.16
2023-01-09T08:50:23.861Z,99360.59
2023-01-09T08:52:51.054Z,99365.75
2023-01-09T08:55:17.553Z,99364.81
2023-01-09T08:57:51.828Z,99376.00
2023-01-09T09:00:21.481Z,99375.97
2023-01-09T09:02:56.270Z,99382.00
2023-01-09T09:05:24.952Z,99390.59
2023-01-09T09:07:54.930Z,99398.38
2023-01-09T09:10:23.433Z,99386.25
2023-01-09T09:12:51.805Z,99400.94
2023-01-09T09:15:25.139Z,99398.28
2023-01-09T09:17:51.935Z,99398.22
2023-01-09T09:20:18.411Z,99396.47
2023-01-09T09:22:46.570Z,99398.19
2023-01-09T09:25:13.834Z,99406.88
2023-01-09T09:27:40.836Z,99406.91
2023-01-09T09:30:07.688Z,99409.56
2023-01-09T09:32:34.773Z,99413.91
2023-01-09T09:35:01.471Z,99424.34
2023-01-09T09:37:28.111Z,99426.09
2023-01-09T09:39:54.766Z,99419.19
2023-01-09T09:43:04.643Z,99420.91
2023-01-09T09:45:52.778Z,99425.28
2023-01-09T09:48:37.133Z,99420.91
2023-01-09T09:51:19.544Z,99419.16
2023-01-09T09:53:49.679Z,99422.66
2023-01-09T09:56:20.114Z,99432.16
2023-01-09T09:58:54.362Z,99426.09
2023-01-09T10:01:25.844Z,99432.16
2023-01-09T10:03:56.641Z,99434.75
2023-01-09T10:06:29.310Z,99428.75
2023-01-09T10:09:06.091Z,99432.13
2023-01-09T10:11:42.423Z,99439.81
2023-01-09T10:14:23.263Z,99448.34
2023-01-09T10:17:11.989Z,99450.88
2023-01-09T10:20:00.034Z,99455.97
2023-01-09T10:22:49.750Z,99455.88
2023-01-09T10:25:46.953Z,99457.50
2023-01-09T10:28:32.136Z,99461.72
2023-01-09T10:31:30.909Z,99453.78
2023-01-09T10:34:11.680Z,99454.56
2023-01-09T10:36:46.840Z,99459.69
2023-01-09T10:39:23.383Z,99463.16
2023-01-09T10:42:01.796Z,99464.81
2023-01-09T10:44:37.756Z,99456.94
2023-01-09T10:47:22.467Z,99462.97
2023-01-09T10:49:51.555Z,99469.91
2023-01-09T10:52:25.089Z,99475.06
2023-01-09T10:54:56.524Z,99480.31
2023-01-09T10:57:44.986Z,99479.44
2023-01-09T11:00:23.892Z,99485.56
2023-01-09T11:02:52.308Z,99485.59
2023-01-09T11:05:29.592Z,99475.19
2023-01-09T11:08:20.004Z,99487.34
2023-01-09T11:10:58.485Z,99487.41
2023-01-09T11:13:32.480Z,99485.69
2023-01-09T11:16:07.868Z,99490.94
2023-01-09T11:18:49.655Z,99490.00
2023-01-09T11:21:28.390Z,99483.97
2023-01-09T11:23:55.997Z,99484.84
2023-01-09T11:26:25.779Z,99480.47
2023-01-09T11:29:12.222Z,99491.75
2023-01-09T11:31:41.665Z,99497.81
2023-01-09T11:34:26.107Z,99487.31
2023-01-09T11:37:02.462Z,99495.97
2023-01-09T11:39:33.100Z,99492.41
2023-01-09T11:42:06.568Z,99498.41
2023-01-09T11:44:33.624Z,99500.94
2023-01-09T11:47:02.125Z,99502.56
2023-01-09T11:49:31.272Z,99487.75
2023-01-09T11:52:24.876Z,99487.69
2023-01-09T11:55:00.100Z,99489.41
2023-01-09T11:57:27.245Z,99497.22
2023-01-09T12:00:01.584Z,99503.34
2023-01-09T12:02:53.435Z,99501.56
2023-01-09T12:05:59.380Z,99514.56
2023-01-09T12:08:40.059Z,99510.31
2023-01-09T12:11:26.957Z,99520.69
2023-01-09T12:14:18.509Z,99516.31
2023-01-09T12:17:06.743Z,99511.06
2023-01-09T12:19:59.944Z,99503.25
2023-01-09T12:22:40.737Z,99506.63
2023-01-09T12:25:29.446Z,99516.13
2023-01-09T12:28:25.717Z,99514.25
2023-01-09T12:30:52.106Z,99517.75
2023-01-09T12:33:28.647Z,99510.75
2023-01-09T12:36:22.444Z,99516.03
2023-01-09T12:39:04.403Z,99517.75
2023-01-09T12:41:46.058Z,99517.75
2023-01-09T12:44:40.051Z,99514.25
2023-01-09T12:47:22.718Z,99519.44
2023-01-09T12:50:19.645Z,99513.28
2023-01-09T12:52:55.553Z,99515.75
2023-01-09T12:55:25.429Z,99512.25
2023-01-09T12:57:57.014Z,99512.19
2023-01-09T13:00:38.527Z,99510.41
2023-01-09T13:03:12.960Z,99512.09
2023-01-09T13:05:47.207Z,99511.13
2023-01-09T13:08:19.891Z,99507.66
2023-01-09T13:10:51.393Z,99506.78
2023-01-09T13:13:40.203Z,99505.91
2023-01-09T13:16:13.914Z,99514.66
2023-01-09T13:19:11.855Z,99511.13
2023-01-09T13:21:42.381Z,99512.00
2023-01-09T13:24:28.014Z,99511.13
2023-01-09T13:27:01.974Z,99521.59
2023-01-09T13:29:37.308Z,99526.75
2023-01-09T13:32:18.231Z,99529.38
2023-01-09T13:34:47.691Z,99530.28
2023-01-09T13:37:30.795Z,99542.44
2023-01-09T13:40:03.330Z,99543.38
2023-01-09T13:42:39.334Z,99539.09
2023-01-09T13:45:20.233Z,99542.59
2023-01-09T13:47:47.272Z,99546.03
2023-01-09T13:50:28.016Z,99546.97
2023-01-09T13:52:57.446Z,99545.25
2023-01-09T13:55:30.131Z,99542.72
2023-01-09T13:58:06.028Z,99543.63
2023-01-09T14:00:35.737Z,99549.75
2023-01-09T14:03:08.454Z,99551.56
2023-01-09T14:05:34.986Z,99555.91
2023-01-09T14:08:04.913Z,99559.41
2023-01-09T14:10:46.025Z,99562.94
2023-01-09T14:13:20.932Z,99568.19
2023-01-09T14:15:49.754Z,99567.34
2023-01-09T14:18:31.265Z,99564.78
2023-01-09T14:21:11.146Z,99560.47
2023-01-09T14:23:52.460Z,99564.94
2023-01-09T14:26:41.510Z,99558.03
2023-01-09T14:29:36.179Z,99565.91
2023-01-09T14:32:21.123Z,99567.69
2023-01-09T14:34:50.812Z,99581.63
2023-01-09T14:37:18.108Z,99583.38
2023-01-09T14:39:46.785Z,99593.84
2023-01-09T14:42:22.613Z,99596.50
2023-01-09T14:44:51.131Z,99598.25
2023-01-09T14:47:25.025Z,99601.78
2023-01-09T14:50:00.727Z,99605.25
2023-01-09T14:52:31.612Z,99610.44
2023-01-09T14:55:01.259Z,99607.88
2023-01-09T14:57:36.097Z,99621.84
2023-01-09T15:00:06.936Z,99627.06
2023-01-09T15:02:36.835Z,99626.22
2023-01-09T15:05:09.974Z,99628.03
2023-01-09T15:07:44.226Z,99633.28
2023-01-09T15:10:18.825Z,99632.44
2023-01-09T15:12:47.439Z,99648.06
2023-01-09T15:15:15.787Z,99635.03
2023-01-09T15:17:52.987Z,99644.66
2023-01-09T15:20:29.971Z,99642.06
2023-01-09T15:22:58.857Z,99645.63
2023-01-09T15:25:39.871Z,99651.72
2023-01-09T15:28:33.397Z,99649.16
2023-01-09T15:31:02.655Z,99650.13
2023-01-09T15:33:30.414Z,99658.81
2023-01-09T15:36:02.246Z,99657.13
2023-01-09T15:38:32.689Z,99658.03
2023-01-09T15:41:04.915Z,99666.69
2023-01-09T15:43:33.196Z,99662.41
2023-01-09T15:46:01.385Z,99660.69
2023-01-09T15:48:35.723Z,99659.81
2023-01-09T15:51:14.730Z,99665.06
2023-01-09T15:53:42.499Z,99667.69
2023-01-09T15:56:12.113Z,99674.72
2023-01-09T15:58:41.600Z,99674.75
2023-01-09T16:01:30.461Z,99676.53
2023-01-09T16:04:03.207Z,99679.22
2023-01-09T16:06:32.168Z,99689.72
2023-01-09T16:09:02.274Z,99695.91
2023-01-09T16:11:32.208Z,99697.75
2023-01-09T16:14:11.925Z,99696.13
2023-01-09T16:16:38.921Z,99706.63
2023-01-09T16:19:05.802Z,99713.69
2023-01-09T16:21:36.615Z,99712.84
2023-01-09T16:24:08.097Z,99712.06
2023-01-09T16:26:35.037Z,99710.41
2023-01-09T16:29:28.514Z,99719.16
2023-01-09T16:31:59.886Z,99711.47
2023-01-09T16:34:26.953Z,99725.41
2023-01-09T16:36:53.709Z,99719.41
2023-01-09T16:39:21.120Z,99726.34
2023-01-09T16:42:17.057Z,99729.06
2023-01-09T16:44:43.721Z,99727.38
2023-01-09T16:47:12.223Z,99734.31
2023-01-09T16:49:38.814Z,99743.88
2023-01-09T16:52:17.214Z,99743.00
2023-01-09T16:54:46.722Z,99750.00
2023-01-09T16:57:18.858Z,99742.19
2023-01-09T16:59:46.404Z,99755.19
2023-01-09T17:02:20.961Z,99756.91
2023-01-09T17:04:47.960Z,99754.28
2023-01-09T17:07:16.644Z,99771.63
2023-01-09T17:09:43.729Z,99762.06
2023-01-09T17:12:18.885Z,99771.66
2023-01-09T17:14:47.147Z,99771.69
2023-01-09T17:17:13.863Z,99772.56
2023-01-09T17:19:40.911Z,99772.56
2023-01-09T17:22:07.413Z,99777.75
2023-01-09T17:25:03.820Z,99777.75
2023-01-09T17:27:53.709Z,99779.50
2023-01-09T17:30:21.694Z,99776.94
2023-01-09T17:32:49.033Z,99781.25
2023-01-09T17:35:19.613Z,99792.56
2023-01-09T17:37:46.843Z,99794.31
2023-01-09T17:40:22.421Z,99797.78
2023-01-09T17:42:49.324Z,99801.28
2023-01-09T17:45:16.929Z,99802.13
2023-01-09T17:47:43.457Z,99809.94
2023-01-09T17:50:19.057Z,99815.16
2023-01-09T17:52:47.228Z,99821.19
2023-01-09T17:55:13.706Z,99829.81
2023-01-09T17:57:42.727Z,99834.19
2023-01-09T18:00:23.917Z,99847.16
2023-01-09T18:02:52.376Z,99840.25
2023-01-09T18:05:19.292Z,99851.50
2023-01-09T18:07:46.193Z,99852.41
2023-01-09T18:10:16.828Z,99848.97
2023-01-09T18:12:43.413Z,99863.69
2023-01-09T18:15:10.283Z,99861.97
2023-01-09T18:17:37.192Z,99859.34
2023-01-09T18:20:04.054Z,99873.22
2023-01-09T18:22:33.572Z,99868.91
2023-01-09T18:25:01.042Z,99868.91
2023-01-09T18:27:28.053Z,99881.03
2023-01-09T18:29:56.163Z,99881.91
2023-01-09T18:32:25.997Z,99882.72
2023-01-09T18:34:52.925Z,99887.94
2023-01-09T18:37:19.731Z,99891.38
2023-01-09T18:39:46.252Z,99888.81
2023-01-09T18:42:12.748Z,99897.44
2023-01-09T18:44:39.774Z,99893.94
2023-01-09T18:47:06.262Z,99907.81
2023-01-09T18:49:32.709Z,99900.03
2023-01-09T18:51:59.896Z,99913.03
2023-01-09T18:54:26.503Z,99912.16
2023-01-09T18:56:52.924Z,99927.75
2023-01-09T18:59:19.940Z,99918.19
2023-01-09T19:01:46.622Z,99919.03
2023-01-09T19:04:13.529Z,99938.97
2023-01-09T19:06:40.414Z,99938.13
2023-01-09T19:09:07.061Z,99925.16
2023-01-09T19:11:33.535Z,99938.13
2023-01-09T19:14:00.129Z,99951.06
2023-01-09T19:16:29.281Z,99952.81
2023-01-09T19:18:57.239Z,99964.91
2023-01-09T19:21:26.630Z,99967.47
2023-01-09T19:23:55.437Z,99970.09
2023-01-09T19:26:25.044Z,99969.19
2023-01-09T19:28:55.225Z,99972.66
2023-01-09T19:31:27.297Z,99976.97
2023-01-09T19:33:54.831Z,99981.25
2023-01-09T19:36:22.396Z,99994.25
2023-01-09T19:38:49.730Z,99995.13
2023-01-09T19:41:19.461Z,100002.00
2023-01-09T19:43:46.919Z,100006.34
2023-01-09T19:46:16.975Z,100010.66
2023-01-09T19:48:43.696Z,100018.47
2023-01-09T19:51:11.485Z,100022.78
2023-01-09T19:53:38.462Z,100025.41
2023-01-09T19:56:19.665Z,100028.00
2023-01-09T19:58:52.037Z,100031.44
2023-01-09T20:01:22.573Z,100032.28
2023-01-09T20:03:49.580Z,100034.03
2023-01-09T20:06:19.019Z,100034.91
2023-01-09T20:08:53.749Z,100040.09
2023-01-09T20:11:22.329Z,100038.41
2023-01-09T20:13:49.018Z,100050.50
2023-01-09T20:16:19.425Z,100053.09
2023-01-09T20:18:46.473Z,100052.22
2023-01-09T20:23:50.763Z,100063.50
2023-01-09T20:26:18.153Z,100066.97
2023-01-09T20:28:45.825Z,100066.09
2023-01-09T20:31:16.129Z,100064.34
2023-01-09T20:33:47.240Z,100073.03
2023-01-09T20:36:14.736Z,100078.25
2023-01-09T20:38:42.394Z,100086.94
2023-01-09T20:41:25.871Z,100093.00
2023-01-09T20:44:01.457Z,100093.00
2023-01-09T20:46:30.931Z,100088.66
2023-01-09T20:48:59.253Z,100100.81
2023-01-09T20:51:26.336Z,100099.94
2023-01-09T20:53:55.881Z,100107.75
2023-01-09T20:56:23.893Z,100110.38
2023-01-09T20:58:50.947Z,100118.16
2023-01-09T21:01:17.769Z,100121.66
2023-01-09T21:03:44.794Z,100126.00
2023-01-09T21:06:14.965Z,100137.25
2023-01-09T21:08:42.968Z,100132.91
2023-01-09T21:11:10.361Z,100142.44
2023-01-09T21:13:37.177Z,100136.41
2023-01-09T21:16:10.190Z,100141.59
2023-01-09T21:18:37.316Z,100141.59
2023-01-09T21:21:08.375Z,100144.16
2023-01-09T21:23:35.467Z,100144.19
2023-01-09T21:26:01.905Z,100153.72
2023-01-09T21:28:31.559Z,100149.41
2023-01-09T21:30:58.033Z,100152.03
2023-01-09T21:33:24.755Z,100164.19
2023-01-09T21:35:55.826Z,100172.84
2023-01-09T21:38:26.345Z,100181.53
2023-01-09T21:40:53.801Z,100182.41
2023-01-09T21:43:56.905Z,100186.75
2023-01-09T21:46:41.942Z,100195.41
2023-01-09T21:49:08.436Z,100197.13
2023-01-09T21:51:38.622Z,100197.13
2023-01-09T21:54:05.795Z,100198.00
2023-01-09T21:56:32.292Z,100209.25
2023-01-09T21:58:58.763Z,100205.81
2023-01-09T22:01:25.829Z,100210.13
2023-01-09T22:03:56.511Z,100217.94
2023-01-09T22:06:23.641Z,100219.69
2023-01-09T22:08:52.849Z,100232.69
2023-01-09T22:11:19.514Z,100237.00
2023-01-09T22:13:49.905Z,100237.00
2023-01-09T22:16:16.547Z,100241.31
2023-01-09T22:18:43.071Z,100248.25
2023-01-09T22:21:11.741Z,100249.97
2023-01-09T22:23:38.291Z,100242.16
2023-01-09T22:26:10.450Z,100251.66
2023-01-09T22:28:37.300Z,100258.59
2023-01-09T22:31:11.745Z,100252.56
2023-01-09T22:33:38.238Z,100257.75
2023-01-09T22:36:10.825Z,100262.09
2023-01-09T22:38:37.655Z,100257.75
2023-01-09T22:41:05.041Z,100267.28
2023-01-09T22:43:32.077Z,100276.78
2023-01-09T22:46:04.359Z,100280.28
2023-01-09T22:48:32.236Z,100281.97
2023-01-09T22:51:00.624Z,100291.53
2023-01-09T22:53:27.967Z,100288.94
2023-01-09T22:56:04.007Z,100295.00
2023-01-09T22:58:31.629Z,100289.78
2023-01-09T23:00:58.674Z,100299.31
2023-01-09T23:03:26.087Z,100305.38
2023-01-09T23:06:07.885Z,100310.59
2023-01-09T23:08:35.596Z,100315.78
2023-01-09T23:11:03.558Z,100321.88
2023-01-09T23:13:30.122Z,100324.50
2023-01-09T23:15:56.793Z,100333.16
2023-01-09T23:18:23.919Z,100334.03
2023-01-09T23:20:55.325Z,100344.50
2023-01-09T23:23:24.484Z,100358.38
2023-01-09T23:25:53.347Z,100357.53
2023-01-09T23:28:20.992Z,100362.72
2023-01-09T23:30:48.507Z,100373.97
2023-01-09T23:33:17.012Z,100384.38
2023-01-09T23:35:44.536Z,100386.13
2023-01-09T23:38:11.649Z,100383.50
2023-01-09T23:40:39.030Z,100382.66
2023-01-09T23:43:11.488Z,100387.84
2023-01-09T23:45:42.301Z,100388.69
2023-01-09T23:48:11.457Z,100394.75
2023-01-09T23:50:38.128Z,100393.88
2023-01-09T23:53:05.474Z,100390.44
2023-01-09T23:55:32.173Z,100400.81
2023-01-09T23:57:58.752Z,100405.13
